Terminal Aerodrome Forecast
Issued by NWS

Home | Current Version | Previous Version | Text Only | Print | Product List | Glossary On
Versions: 1 2 3 4 5 6 7 8 9 10 11 12 13 14 15 16 17 18 19 20 21 22 23 24 25
000
FTUS43 KLSX 010300 AAC
TAFUIN
TAF AMD
KUIN 010320Z 0103/0124 14008KT 3SM -RASN BR SCT009 OVC020
      TEMPO 0103/0105 1SM -SN BKN009
     FM010500 14008KT 1SM -SN BR OVC006
     FM011500 09008KT 1/2SM SN OVC003
     FM012000 02012G20KT 2SM -SN BR OVC007=

USA.gov is the U.S. government's official web portal to all federal, state and local government web resources and services.